Time;durP1;ratioP1;P1;durP2;ratioP2;P2;SDS_P1;SDS_P2;PMS_P1;PMS_P2;Temp;Humidity;BMP_temperature;BMP_pressure;BME280_temperature;BME280_humidity;BME280_pressure;Samples;Min_cycle;Max_cycle;Signal;HPM_P1;HPM_P2
2023/07/06 04:02:12;;;;;;;;;;;16.20;95.80;;;;;;6597934;23;1905;-76
2023/07/06 04:05:16;;;;;;;;;;;16.20;95.80;;;;;;6177020;28;1505;-78
2023/07/06 04:08:20;;;;;;;;;;;16.20;96.00;;;;;;6168949;28;1838;-78
2023/07/06 04:11:22;;;;;;;;;;;16.20;96.00;;;;;;6168114;28;1386;-78
2023/07/06 04:14:25;;;;;;;;;;;16.20;96.20;;;;;;6177237;28;1871;-79
2023/07/06 04:17:28;;;;;;;;;;;16.20;96.10;;;;;;6176226;28;1421;-77
2023/07/06 04:20:30;;;;;;;;;;;16.20;96.20;;;;;;6176777;28;1110;-77
2023/07/06 04:23:32;;;;;;;;;;;16.20;96.10;;;;;;6175544;28;1461;-78
2023/07/06 04:26:34;;;;;;;;;;;16.30;96.10;;;;;;6174660;28;1416;-74
2023/07/06 04:29:37;;;;;;;;;;;16.20;96.10;;;;;;6176820;28;1099;-76
2023/07/06 04:32:42;;;;;;;;;;;16.20;96.10;;;;;;6176431;28;1075;-76
2023/07/06 04:35:44;;;;;;;;;;;16.10;96.30;;;;;;6173830;28;1902;-76
2023/07/06 04:38:45;;;;;;;;;;;16.10;96.50;;;;;;6177894;28;1095;-75
2023/07/06 04:41:48;;;;;;;;;;;16.10;96.50;;;;;;6176700;28;1080;-75
2023/07/06 04:44:50;;;;;;;;;;;16.00;96.60;;;;;;6176355;28;1047;-75
2023/07/06 04:47:56;;;;;;;;;;;15.90;96.70;;;;;;6177611;28;1085;-76
2023/07/06 04:50:59;;;;;;;;;;;15.70;97.10;;;;;;6177204;28;1478;-77
2023/07/06 04:54:03;;;;;;;;;;;15.60;97.30;;;;;;6178948;28;1057;-76
2023/07/06 04:57:05;;;;;;;;;;;15.60;97.30;;;;;;6177706;28;1899;-77
2023/07/06 05:00:13;;;;;;;;;;;15.50;97.60;;;;;;6176923;28;1107;-75
2023/07/06 05:03:16;;;;;;;;;;;15.50;97.50;;;;;;6177248;28;1220;-76
2023/07/06 05:06:19;;;;;;;;;;;15.60;97.40;;;;;;6178451;28;1038;-77
2023/07/06 05:09:21;;;;;;;;;;;15.70;96.80;;;;;;6179167;28;1100;-74
2023/07/06 05:12:24;;;;;;;;;;;15.80;96.90;;;;;;6179455;28;1113;-77
2023/07/06 05:15:26;;;;;;;;;;;15.80;96.60;;;;;;6181200;28;1899;-74
2023/07/06 05:18:29;;;;;;;;;;;15.70;96.70;;;;;;6177549;28;1085;-75
2023/07/06 05:21:33;;;;;;;;;;;15.80;96.70;;;;;;6176145;28;1142;-76
2023/07/06 05:24:34;;;;;;;;;;;15.80;96.70;;;;;;6176177;28;1028;-77
2023/07/06 05:27:36;;;;;;;;;;;15.90;97.00;;;;;;6176332;28;1053;-74
2023/07/06 05:30:38;;;;;;;;;;;16.00;97.20;;;;;;6176055;28;1109;-76
2023/07/06 05:33:41;;;;;;;;;;;16.10;97.10;;;;;;6175963;28;1250;-74
2023/07/06 05:36:42;;;;;;;;;;;16.10;97.00;;;;;;6175795;28;1986;-76
2023/07/06 05:39:44;;;;;;;;;;;16.20;97.10;;;;;;6175909;28;1316;-74
2023/07/06 05:42:46;;;;;;;;;;;16.30;97.00;;;;;;6175991;28;1059;-74
2023/07/06 05:45:48;;;;;;;;;;;16.40;97.00;;;;;;6175701;28;1242;-75
2023/07/06 05:48:51;;;;;;;;;;;16.40;97.00;;;;;;6176027;28;1121;-77
2023/07/06 05:51:52;;;;;;;;;;;16.50;97.20;;;;;;6175283;28;1566;-75
2023/07/06 05:54:54;;;;;;;;;;;16.60;97.30;;;;;;6180555;28;1902;-74
2023/07/06 05:57:56;;;;;;;;;;;16.60;97.30;;;;;;6183811;28;1043;-76
2023/07/06 06:00:59;;;;;;;;;;;16.60;97.00;;;;;;6185393;28;1136;-76
2023/07/06 06:04:02;;;;;;;;;;;16.70;97.20;;;;;;6184230;28;1346;-77
2023/07/06 06:07:06;;;;;;;;;;;16.70;96.90;;;;;;6183129;28;1062;-77
2023/07/06 06:10:08;;;;;;;;;;;16.80;96.60;;;;;;6184715;28;988;-78
2023/07/06 06:13:10;;;;;;;;;;;16.90;96.40;;;;;;6185609;28;1023;-76
2023/07/06 06:16:12;;;;;;;;;;;17.00;96.20;;;;;;6181547;28;1973;-75
2023/07/06 06:19:16;;;;;;;;;;;17.00;95.90;;;;;;6179698;28;1138;-74
2023/07/06 06:22:18;;;;;;;;;;;17.10;95.90;;;;;;6179764;28;1079;-76
2023/07/06 06:25:20;;;;;;;;;;;17.10;95.80;;;;;;6179325;28;871;-76
2023/07/06 06:28:21;;;;;;;;;;;17.20;95.60;;;;;;6179644;28;943;-76
2023/07/06 06:31:23;;;;;;;;;;;17.30;95.60;;;;;;6179273;28;1303;-75
2023/07/06 06:34:26;;;;;;;;;;;17.40;95.10;;;;;;6179491;28;1073;-78
2023/07/06 06:37:28;;;;;;;;;;;17.30;95.00;;;;;;6179200;28;1910;-76
2023/07/06 06:40:30;;;;;;;;;;;17.40;95.20;;;;;;6179437;28;1033;-76
2023/07/06 06:43:36;;;;;;;;;;;17.50;95.00;;;;;;6179160;28;958;-75
2023/07/06 06:46:38;;;;;;;;;;;17.60;94.80;;;;;;6179254;28;1050;-77
2023/07/06 06:49:42;;;;;;;;;;;17.70;94.40;;;;;;6178948;28;1037;-74
2023/07/06 06:52:44;;;;;;;;;;;17.70;94.60;;;;;;6178877;28;1038;-75
2023/07/06 06:55:45;;;;;;;;;;;17.80;94.10;;;;;;6178933;28;1903;-75
2023/07/06 06:58:47;;;;;;;;;;;17.80;94.20;;;;;;6178741;28;980;-76
2023/07/06 07:01:50;;;;;;;;;;;17.80;93.80;;;;;;6178495;28;1333;-75
2023/07/06 07:04:58;;;;;;;;;;;17.90;93.70;;;;;;6178069;28;1945;-76
2023/07/06 07:08:00;;;;;;;;;;;18.00;93.00;;;;;;6178685;28;1075;-76
2023/07/06 07:11:02;;;;;;;;;;;18.00;93.00;;;;;;6178548;28;1045;-76
2023/07/06 07:14:07;;;;;;;;;;;18.20;92.80;;;;;;6178672;28;1054;-76
2023/07/06 07:17:10;;;;;;;;;;;18.20;92.90;;;;;;6178485;28;1907;-75
2023/07/06 07:20:14;;;;;;;;;;;18.30;92.60;;;;;;6178552;28;1048;-77
2023/07/06 07:23:15;;;;;;;;;;;18.40;92.40;;;;;;6178333;28;991;-75
2023/07/06 07:26:21;;;;;;;;;;;18.40;91.50;;;;;;6178656;28;1085;-76
2023/07/06 07:29:23;;;;;;;;;;;18.50;91.40;;;;;;6178238;28;1030;-75
2023/07/06 07:32:25;;;;;;;;;;;18.60;91.70;;;;;;6178294;28;1043;-74
2023/07/06 07:35:28;;;;;;;;;;;18.60;91.70;;;;;;6178221;28;1906;-75
2023/07/06 07:38:29;;;;;;;;;;;18.60;91.10;;;;;;6177982;28;983;-75
2023/07/06 07:41:31;;;;;;;;;;;18.60;90.90;;;;;;6178040;28;1042;-75
2023/07/06 07:44:33;;;;;;;;;;;18.70;90.60;;;;;;6178003;28;1105;-77
2023/07/06 07:47:34;;;;;;;;;;;18.70;90.90;;;;;;6178181;28;1112;-75
2023/07/06 07:50:37;;;;;;;;;;;18.80;90.80;;;;;;6178121;28;1101;-74
2023/07/06 07:53:40;;;;;;;;;;;18.80;88.40;;;;;;6178007;28;1023;-75
2023/07/06 07:56:43;;;;;;;;;;;18.80;87.90;;;;;;6177561;28;1971;-74
2023/07/06 07:59:48;;;;;;;;;;;18.90;86.30;;;;;;6182506;28;1073;-75
2023/07/06 08:02:52;;;;;;;;;;;19.00;85.20;;;;;;6185531;28;1132;-76
2023/07/06 08:05:58;;;;;;;;;;;19.10;85.20;;;;;;6183089;28;1080;-75
2023/07/06 08:09:03;;;;;;;;;;;19.00;84.40;;;;;;6179457;28;1062;-76
2023/07/06 08:12:06;;;;;;;;;;;19.00;84.70;;;;;;6177591;28;1019;-77
2023/07/06 08:15:08;;;;;;;;;;;19.20;84.30;;;;;;6177125;28;1015;-75
2023/07/06 08:18:10;;;;;;;;;;;19.40;84.40;;;;;;6177688;28;1906;-75
2023/07/06 08:21:13;;;;;;;;;;;19.30;82.60;;;;;;6178250;28;1112;-75
2023/07/06 08:24:15;;;;;;;;;;;19.30;82.90;;;;;;6180201;28;1002;-76
2023/07/06 08:27:17;;;;;;;;;;;19.50;80.30;;;;;;6179054;28;1018;-77
2023/07/06 08:30:20;;;;;;;;;;;19.60;80.20;;;;;;6179039;28;1075;-75
2023/07/06 08:33:22;;;;;;;;;;;19.70;79.60;;;;;;6176658;28;1095;-75
2023/07/06 08:36:25;;;;;;;;;;;19.70;78.30;;;;;;6176576;28;1898;-75
2023/07/06 08:39:27;;;;;;;;;;;19.90;78.40;;;;;;6176732;28;1028;-76
2023/07/06 08:42:29;;;;;;;;;;;19.90;77.70;;;;;;6176411;28;996;-75
2023/07/06 08:45:38;;;;;;;;;;;19.80;77.60;;;;;;6176199;28;1142;-74
2023/07/06 08:48:41;;;;;;;;;;;20.00;78.30;;;;;;6176519;28;1073;-75
2023/07/06 08:51:44;;;;;;;;;;;20.10;77.30;;;;;;6176659;28;1132;-76
2023/07/06 08:54:51;;;;;;;;;;;20.20;76.10;;;;;;6176477;28;1968;-76
2023/07/06 08:57:53;;;;;;;;;;;20.30;76.20;;;;;;6180452;28;1978;-75
2023/07/06 09:00:57;;;;;;;;;;;20.30;76.20;;;;;;6182583;28;1347;-76
2023/07/06 09:04:02;;;;;;;;;;;20.20;76.50;;;;;;6182688;28;1066;-76
2023/07/06 09:07:06;;;;;;;;;;;20.40;76.30;;;;;;6180681;28;1010;-75
2023/07/06 09:10:12;;;;;;;;;;;20.50;76.50;;;;;;6178827;28;1059;-76
2023/07/06 09:13:22;;;;;;;;;;;20.50;75.40;;;;;;6177676;28;1003;-73
2023/07/06 09:16:25;;;;;;;;;;;20.60;75.90;;;;;;6176197;28;1902;-76
2023/07/06 09:19:26;;;;;;;;;;;20.60;75.70;;;;;;6176233;28;1081;-76
2023/07/06 09:22:30;;;;;;;;;;;20.80;75.70;;;;;;6176154;28;1111;-75
2023/07/06 09:25:36;;;;;;;;;;;20.90;75.10;;;;;;6176287;28;1113;-74
2023/07/06 09:28:38;;;;;;;;;;;21.00;74.70;;;;;;6179525;28;1087;-74
2023/07/06 09:31:39;;;;;;;;;;;21.10;74.00;;;;;;6181039;28;986;-74
2023/07/06 09:34:44;;;;;;;;;;;21.00;72.30;;;;;;6180833;28;1052;-75
2023/07/06 09:37:50;;;;;;;;;;;21.00;72.40;;;;;;6180918;28;1902;-74
2023/07/06 09:40:52;;;;;;;;;;;21.10;70.20;;;;;;6180661;28;1134;-75
2023/07/06 09:43:58;;;;;;;;;;;21.30;68.70;;;;;;6180769;28;1115;-74
2023/07/06 09:47:01;;;;;;;;;;;21.30;67.10;;;;;;6180576;28;1055;-77
2023/07/06 09:50:07;;;;;;;;;;;21.30;65.70;;;;;;6180728;28;980;-76
2023/07/06 09:53:19;;;;;;;;;;;21.40;65.40;;;;;;6180813;28;1047;-77
2023/07/06 09:56:21;;;;;;;;;;;21.50;64.60;;;;;;6180696;28;1903;-78
2023/07/06 09:59:23;;;;;;;;;;;21.60;65.10;;;;;;6180332;28;1546;-77
2023/07/06 10:02:31;;;;;;;;;;;21.60;64.90;;;;;;6180031;28;1358;-76
2023/07/06 10:05:44;;;;;;;;;;;21.70;65.50;;;;;;6180182;28;1123;-74
2023/07/06 10:08:52;;;;;;;;;;;21.70;65.00;;;;;;6180247;28;1071;-75
2023/07/06 10:11:56;;;;;;;;;;;21.80;66.70;;;;;;6180229;28;1284;-74
2023/07/06 10:15:00;;;;;;;;;;;21.80;67.10;;;;;;6185290;28;1079;-77
2023/07/06 10:18:07;;;;;;;;;;;21.90;65.50;;;;;;6186374;28;1977;-76
2023/07/06 10:21:14;;;;;;;;;;;22.00;64.60;;;;;;6186041;28;1972;-78
2023/07/06 10:24:30;;;;;;;;;;;22.00;64.90;;;;;;6182969;28;1064;-77
2023/07/06 10:27:34;;;;;;;;;;;22.00;64.10;;;;;;6180174;28;1092;-75
2023/07/06 10:30:44;;;;;;;;;;;22.00;63.60;;;;;;6180011;28;1082;-75
2023/07/06 10:33:52;;;;;;;;;;;22.10;63.60;;;;;;6179676;28;1072;-75
2023/07/06 10:36:54;;;;;;;;;;;22.20;63.40;;;;;;6179475;28;1906;-75
2023/07/06 10:40:05;;;;;;;;;;;22.30;63.60;;;;;;6178846;28;1116;-76
2023/07/06 10:43:18;;;;;;;;;;;22.50;63.50;;;;;;6182893;28;1176;-75
2023/07/06 10:46:33;;;;;;;;;;;22.50;63.00;;;;;;6185053;28;1085;-77
2023/07/06 10:50:03;;;;;;;;;;;22.50;63.20;;;;;;6185791;28;1036;-76
2023/07/06 10:53:17;;;;;;;;;;;22.50;63.80;;;;;;6185638;28;1250;-77
2023/07/06 10:56:21;;;;;;;;;;;22.60;63.20;;;;;;6184502;28;2018;-78
2023/07/06 10:59:24;;;;;;;;;;;22.80;62.20;;;;;;6183978;28;1035;-74
2023/07/06 11:02:36;;;;;;;;;;;22.90;62.40;;;;;;6180950;28;1324;-77
2023/07/06 11:05:52;;;;;;;;;;;23.00;64.00;;;;;;6179633;28;1051;-77
2023/07/06 11:09:14;;;;;;;;;;;23.10;61.30;;;;;;6179225;28;1159;-78
2023/07/06 11:12:19;;;;;;;;;;;23.10;59.70;;;;;;6181429;28;1079;-75
2023/07/06 11:15:23;;;;;;;;;;;23.10;59.00;;;;;;6180844;28;970;-76
2023/07/06 11:18:30;;;;;;;;;;;23.20;59.80;;;;;;6179543;28;1981;-77
2023/07/06 11:21:43;;;;;;;;;;;23.30;59.30;;;;;;6179161;28;1162;-76
2023/07/06 11:24:48;;;;;;;;;;;23.20;58.50;;;;;;6178974;28;1067;-77
2023/07/06 11:27:57;;;;;;;;;;;23.30;59.30;;;;;;6179191;28;1081;-76
2023/07/06 11:31:02;;;;;;;;;;;23.30;59.10;;;;;;6178996;28;1007;-75
2023/07/06 11:34:13;;;;;;;;;;;23.40;57.80;;;;;;6178958;28;1027;-76
2023/07/06 11:37:24;;;;;;;;;;;23.40;58.80;;;;;;6178549;28;1902;-77
2023/07/06 11:40:38;;;;;;;;;;;23.30;57.80;;;;;;6178644;28;1095;-77
2023/07/06 11:43:53;;;;;;;;;;;23.30;58.80;;;;;;6178351;28;1081;-74
2023/07/06 11:47:09;;;;;;;;;;;23.40;58.50;;;;;;6178255;28;1055;-75
2023/07/06 11:50:14;;;;;;;;;;;23.50;58.70;;;;;;6177668;28;1073;-75
2023/07/06 11:53:29;;;;;;;;;;;23.50;57.80;;;;;;6178133;28;996;-75
2023/07/06 11:56:49;;;;;;;;;;;23.60;57.40;;;;;;6177928;28;2288;-75
2023/07/06 12:00:16;;;;;;;;;;;23.60;56.30;;;;;;6177755;28;1018;-75
2023/07/06 12:03:16;;;;;;;;;;;23.60;57.20;;;;;;6177300;28;1915;-76
2023/07/06 12:06:19;;;;;;;;;;;23.60;56.20;;;;;;6177862;28;1042;-75
2023/07/06 12:09:22;;;;;;;;;;;23.70;56.80;;;;;;6177474;28;1007;-76
2023/07/06 12:12:24;;;;;;;;;;;23.90;55.90;;;;;;6177260;28;1084;-76
2023/07/06 12:15:29;;;;;;;;;;;24.00;55.30;;;;;;6177131;28;1107;-74
2023/07/06 12:18:31;;;;;;;;;;;24.10;55.00;;;;;;6177251;28;1989;-76
2023/07/06 12:21:35;;;;;;;;;;;24.20;55.20;;;;;;6177327;28;1016;-77
2023/07/06 12:24:38;;;;;;;;;;;24.40;54.70;;;;;;6177583;28;1093;-76
2023/07/06 12:27:41;;;;;;;;;;;24.40;54.40;;;;;;6178007;28;1083;-75
2023/07/06 12:30:49;;;;;;;;;;;24.50;55.00;;;;;;6187260;28;1055;-78
2023/07/06 12:33:53;;;;;;;;;;;24.70;54.30;;;;;;6191449;28;1011;-76
2023/07/06 12:36:59;;;;;;;;;;;24.70;53.70;;;;;;6186238;28;1887;-77
2023/07/06 12:40:01;;;;;;;;;;;24.90;54.10;;;;;;6184364;28;1051;-77
2023/07/06 12:43:04;;;;;;;;;;;25.00;54.00;;;;;;6184523;28;1097;-74
2023/07/06 12:46:09;;;;;;;;;;;25.10;52.60;;;;;;6182096;28;2127;-76
2023/07/06 12:49:20;;;;;;;;;;;25.00;53.00;;;;;;6182829;28;1022;-74
2023/07/06 12:52:27;;;;;;;;;;;25.00;52.90;;;;;;6176761;28;1075;-76
2023/07/06 12:55:32;;;;;;;;;;;25.00;52.60;;;;;;6176656;28;1088;-75
2023/07/06 12:58:35;;;;;;;;;;;25.30;53.20;;;;;;6176502;28;1902;-75
2023/07/06 13:01:43;;;;;;;;;;;25.50;53.80;;;;;;6176264;28;1239;-74
2023/07/06 13:04:47;;;;;;;;;;;25.70;51.90;;;;;;6176561;28;1190;-75
2023/07/06 13:07:50;;;;;;;;;;;25.90;51.50;;;;;;6176517;28;1010;-76
2023/07/06 13:11:03;;;;;;;;;;;26.00;51.10;;;;;;6176522;28;1095;-76
2023/07/06 13:14:07;;;;;;;;;;;26.00;51.30;;;;;;6176720;28;1012;-76
2023/07/06 13:17:15;;;;;;;;;;;25.90;50.70;;;;;;6176585;28;1898;-76
2023/07/06 13:20:17;;;;;;;;;;;25.90;49.90;;;;;;6176011;28;1049;-76
2023/07/06 13:23:19;;;;;;;;;;;26.20;50.50;;;;;;6176085;28;1091;-75
2023/07/06 13:26:26;;;;;;;;;;;26.40;48.90;;;;;;6175999;28;1041;-76
2023/07/06 13:29:27;;;;;;;;;;;26.50;49.60;;;;;;6176236;28;1103;-76
2023/07/06 13:32:35;;;;;;;;;;;26.70;50.40;;;;;;6176300;28;1026;-78
2023/07/06 13:35:37;;;;;;;;;;;27.00;50.10;;;;;;6176654;28;1058;-76
2023/07/06 13:38:38;;;;;;;;;;;27.10;48.70;;;;;;6175998;28;1906;-75
2023/07/06 13:41:40;;;;;;;;;;;27.00;47.70;;;;;;6176132;28;1087;-76
2023/07/06 13:44:42;;;;;;;;;;;27.10;47.60;;;;;;6176112;28;1017;-76
2023/07/06 13:47:45;;;;;;;;;;;27.20;48.20;;;;;;6176312;28;1089;-76
2023/07/06 13:50:48;;;;;;;;;;;27.20;47.90;;;;;;6176244;28;982;-74
2023/07/06 13:53:50;;;;;;;;;;;27.10;47.10;;;;;;6176552;28;1145;-76
2023/07/06 13:56:52;;;;;;;;;;;27.40;48.00;;;;;;6176209;28;1085;-75
2023/07/06 13:59:54;;;;;;;;;;;27.20;47.30;;;;;;6175963;28;1902;-76
2023/07/06 14:02:57;;;;;;;;;;;27.10;47.00;;;;;;6176142;28;1309;-78
2023/07/06 14:05:59;;;;;;;;;;;27.10;47.30;;;;;;6176898;28;1171;-75
2023/07/06 14:09:00;;;;;;;;;;;27.00;48.20;;;;;;6179474;28;1113;-76
2023/07/06 14:12:03;;;;;;;;;;;27.00;48.80;;;;;;6176044;28;1021;-74
2023/07/06 14:15:08;;;;;;;;;;;27.10;47.80;;;;;;6177778;28;1017;-76
2023/07/06 14:18:11;;;;;;;;;;;27.20;48.30;;;;;;6180261;28;1898;-75
2023/07/06 14:21:13;;;;;;;;;;;27.00;47.10;;;;;;6180236;28;1081;-74
2023/07/06 14:24:19;;;;;;;;;;;26.80;47.90;;;;;;6180138;28;1022;-75
2023/07/06 14:27:20;;;;;;;;;;;27.10;48.10;;;;;;6180195;28;1085;-76
2023/07/06 14:30:23;;;;;;;;;;;27.50;46.80;;;;;;6179839;28;1051;-75
2023/07/06 14:33:27;;;;;;;;;;;27.90;47.50;;;;;;6179869;28;1065;-74
2023/07/06 14:36:29;;;;;;;;;;;28.00;47.30;;;;;;6179707;28;1037;-78
2023/07/06 14:39:30;;;;;;;;;;;28.20;47.30;;;;;;6179735;28;1903;-74
2023/07/06 14:42:32;;;;;;;;;;;28.10;48.20;;;;;;6179566;28;1097;-76
2023/07/06 14:45:36;;;;;;;;;;;28.30;47.60;;;;;;6179039;28;1130;-75
2023/07/06 14:48:39;;;;;;;;;;;28.40;46.60;;;;;;6179422;28;1070;-75
2023/07/06 14:51:40;;;;;;;;;;;28.50;46.30;;;;;;6179205;28;1002;-78
2023/07/06 14:54:42;;;;;;;;;;;28.60;45.70;;;;;;6176448;28;2054;-77
2023/07/06 14:57:44;;;;;;;;;;;28.50;45.90;;;;;;6176423;28;2005;-79
2023/07/06 15:00:46;;;;;;;;;;;29.00;46.60;;;;;;6178016;28;1382;-74
2023/07/06 15:03:49;;;;;;;;;;;29.30;44.60;;;;;;6176611;28;1479;-78
2023/07/06 15:06:51;;;;;;;;;;;28.90;45.20;;;;;;6174924;28;1564;-78
2023/07/06 15:09:53;;;;;;;;;;;28.90;45.50;;;;;;6175511;28;1119;-77
2023/07/06 15:12:54;;;;;;;;;;;28.70;44.80;;;;;;6175362;28;1154;-75
2023/07/06 15:15:57;;;;;;;;;;;28.90;45.50;;;;;;6175426;28;1079;-77
2023/07/06 15:19:00;;;;;;;;;;;29.10;45.20;;;;;;6173306;28;2061;-78
2023/07/06 15:22:02;;;;;;;;;;;29.00;46.00;;;;;;6175350;28;1943;-77
2023/07/06 15:25:04;;;;;;;;;;;28.90;44.80;;;;;;6174560;28;1076;-80
2023/07/06 15:28:06;;;;;;;;;;;28.80;45.30;;;;;;6174311;28;1465;-77
2023/07/06 15:31:08;;;;;;;;;;;28.70;45.40;;;;;;6174091;28;1367;-77
2023/07/06 15:34:12;;;;;;;;;;;28.80;45.60;;;;;;6171226;28;1454;-79
2023/07/06 15:37:13;;;;;;;;;;;28.60;45.10;;;;;;6177759;28;1413;-78
2023/07/06 15:40:15;;;;;;;;;;;28.70;45.50;;;;;;6178334;28;1981;-78
2023/07/06 15:43:17;;;;;;;;;;;28.90;46.00;;;;;;6178238;28;1023;-79
2023/07/06 15:46:19;;;;;;;;;;;29.00;44.70;;;;;;6177875;28;1040;-80
2023/07/06 15:49:22;;;;;;;;;;;29.10;44.90;;;;;;6178208;28;1101;-78
2023/07/06 15:52:25;;;;;;;;;;;28.90;44.90;;;;;;6177721;28;1392;-77
2023/07/06 15:55:26;;;;;;;;;;;28.90;45.00;;;;;;6177525;28;1384;-81
2023/07/06 15:58:30;;;;;;;;;;;29.10;45.10;;;;;;6177353;28;1891;-79
2023/07/06 16:01:32;;;;;;;;;;;29.10;43.90;;;;;;6174392;28;1493;-78
2023/07/06 16:04:35;;;;;;;;;;;29.00;44.40;;;;;;6166923;28;1595;-77
2023/07/06 16:07:37;;;;;;;;;;;29.20;44.90;;;;;;6172029;28;1402;-79
2023/07/06 16:10:39;;;;;;;;;;;29.20;43.70;;;;;;6173828;28;1342;-76
2023/07/06 16:13:41;;;;;;;;;;;29.30;43.80;;;;;;6169572;28;2076;-77
2023/07/06 16:16:43;;;;;;;;;;;29.40;43.90;;;;;;6170831;28;2607;-76
2023/07/06 16:19:46;;;;;;;;;;;29.50;43.50;;;;;;6169895;28;2446;-77
2023/07/06 16:22:47;;;;;;;;;;;29.50;43.40;;;;;;6175048;28;1462;-77
2023/07/06 16:25:49;;;;;;;;;;;29.50;43.80;;;;;;6175571;28;1416;-79
2023/07/06 16:28:54;;;;;;;;;;;29.70;43.30;;;;;;6177061;28;1704;-79
2023/07/06 16:31:56;;;;;;;;;;;29.70;43.00;;;;;;6173132;28;2200;-78
2023/07/06 16:34:59;;;;;;;;;;;29.50;42.40;;;;;;6164444;28;1204;-78
2023/07/06 16:38:01;;;;;;;;;;;29.70;42.90;;;;;;6159610;28;2750;-78
2023/07/06 16:41:03;;;;;;;;;;;29.70;42.80;;;;;;6163865;28;2871;-78
2023/07/06 16:44:05;;;;;;;;;;;29.70;42.60;;;;;;6176215;28;1031;-77
2023/07/06 16:47:07;;;;;;;;;;;29.60;43.20;;;;;;6163987;28;2738;-78
2023/07/06 16:50:10;;;;;;;;;;;29.70;43.10;;;;;;6170330;28;1689;-78
2023/07/06 16:53:12;;;;;;;;;;;29.60;42.80;;;;;;6174661;28;1393;-78
2023/07/06 16:56:14;;;;;;;;;;;29.80;42.50;;;;;;6175451;28;1608;-78
2023/07/06 16:59:15;;;;;;;;;;;29.80;42.60;;;;;;6175677;28;1983;-77
2023/07/06 17:02:17;;;;;;;;;;;29.90;42.50;;;;;;6168916;28;2615;-77
2023/07/06 17:05:20;;;;;;;;;;;29.90;42.10;;;;;;6179464;28;1824;-79
2023/07/06 17:08:22;;;;;;;;;;;29.80;43.00;;;;;;6176884;28;2820;-77
2023/07/06 17:11:24;;;;;;;;;;;30.00;43.20;;;;;;6174802;28;1463;-76
2023/07/06 17:14:26;;;;;;;;;;;30.10;42.20;;;;;;6176278;28;1387;-78
2023/07/06 17:17:28;;;;;;;;;;;30.20;42.00;;;;;;6174435;28;1564;-75
2023/07/06 17:20:31;;;;;;;;;;;29.90;42.40;;;;;;6175983;28;3009;-76
2023/07/06 17:23:34;;;;;;;;;;;29.90;42.40;;;;;;6176410;28;1459;-75
2023/07/06 17:26:36;;;;;;;;;;;30.10;42.70;;;;;;6176385;28;1457;-78
2023/07/06 17:29:37;;;;;;;;;;;30.20;42.10;;;;;;6173256;28;1646;-76
2023/07/06 17:32:39;;;;;;;;;;;30.50;42.00;;;;;;6174593;28;1513;-77
2023/07/06 17:35:44;;;;;;;;;;;30.60;41.50;;;;;;6175559;28;1605;-76
2023/07/06 17:38:48;;;;;;;;;;;30.50;41.60;;;;;;6169955;28;2363;-76
2023/07/06 17:41:52;;;;;;;;;;;30.50;41.80;;;;;;6173338;28;1417;-78
2023/07/06 17:44:54;;;;;;;;;;;30.60;41.50;;;;;;6177926;28;1058;-79
2023/07/06 17:47:55;;;;;;;;;;;30.60;41.20;;;;;;6175328;28;1441;-76
2023/07/06 17:51:01;;;;;;;;;;;30.60;40.90;;;;;;6180485;28;1039;-77
2023/07/06 17:54:03;;;;;;;;;;;30.50;41.40;;;;;;6180692;28;1094;-76
2023/07/06 17:57:05;;;;;;;;;;;30.60;41.80;;;;;;6180625;28;1075;-78
2023/07/06 18:00:08;;;;;;;;;;;30.70;41.50;;;;;;6175273;28;1903;-78
2023/07/06 18:03:10;;;;;;;;;;;30.60;41.30;;;;;;6176948;28;1469;-79
2023/07/06 18:06:17;;;;;;;;;;;30.00;42.40;;;;;;6180338;28;1273;-78
2023/07/06 18:09:19;;;;;;;;;;;30.00;44.20;;;;;;6177781;28;2285;-78
2023/07/06 18:12:21;;;;;;;;;;;29.90;43.70;;;;;;6175776;28;2614;-78
2023/07/06 18:15:22;;;;;;;;;;;30.20;42.80;;;;;;6172469;28;2029;-80
2023/07/06 18:18:24;;;;;;;;;;;30.20;42.50;;;;;;6179509;28;1991;-78
2023/07/06 18:21:27;;;;;;;;;;;30.20;42.90;;;;;;6178387;28;1450;-77
2023/07/06 18:24:29;;;;;;;;;;;29.90;43.50;;;;;;6181660;28;1046;-77
2023/07/06 18:27:30;;;;;;;;;;;29.90;43.30;;;;;;6175665;28;3795;-76
2023/07/06 18:30:33;;;;;;;;;;;29.50;44.40;;;;;;6181575;28;2832;-77
2023/07/06 18:33:34;;;;;;;;;;;29.30;44.30;;;;;;6181147;28;1601;-77
2023/07/06 18:36:38;;;;;;;;;;;29.30;44.10;;;;;;6157477;29;1084;-78
2023/07/06 18:39:41;;;;;;;;;;;29.30;43.90;;;;;;6179313;28;1903;-78
2023/07/06 18:42:43;;;;;;;;;;;29.30;44.60;;;;;;6177283;28;1467;-77
2023/07/06 18:45:46;;;;;;;;;;;29.10;45.10;;;;;;6174487;28;1985;-78
2023/07/06 18:48:47;;;;;;;;;;;29.00;44.90;;;;;;6172258;28;1827;-75
2023/07/06 18:51:50;;;;;;;;;;;28.90;44.90;;;;;;6176370;28;1625;-77
2023/07/06 18:54:52;;;;;;;;;;;29.00;45.70;;;;;;6174510;28;1886;-77
2023/07/06 18:57:54;;;;;;;;;;;29.10;45.00;;;;;;6173818;28;1624;-79
2023/07/06 19:00:56;;;;;;;;;;;28.90;46.70;;;;;;6174591;28;1906;-77
2023/07/06 19:04:03;;;;;;;;;;;28.80;46.40;;;;;;6181706;28;1746;-79
2023/07/06 19:07:08;;;;;;;;;;;28.50;47.60;;;;;;6180165;28;2838;-79
2023/07/06 19:10:10;;;;;;;;;;;28.50;46.80;;;;;;6187393;28;1701;-78
2023/07/06 19:13:12;;;;;;;;;;;28.30;50.20;;;;;;6186504;28;1027;-76
2023/07/06 19:16:14;;;;;;;;;;;28.30;51.50;;;;;;6183733;28;1707;-78
2023/07/06 19:19:20;;;;;;;;;;;28.00;53.00;;;;;;6181342;28;1879;-77
2023/07/06 19:22:23;;;;;;;;;;;27.80;54.10;;;;;;6177535;28;2724;-77
2023/07/06 19:25:26;;;;;;;;;;;27.50;54.50;;;;;;6156536;28;2371;-78
2023/07/06 19:28:28;;;;;;;;;;;27.50;54.70;;;;;;6161788;28;1633;-78
2023/07/06 19:31:30;;;;;;;;;;;27.50;54.80;;;;;;6176659;28;1723;-77
2023/07/06 19:34:32;;;;;;;;;;;27.40;55.40;;;;;;6175948;28;1386;-77
2023/07/06 19:37:35;;;;;;;;;;;27.30;56.10;;;;;;6175904;28;1757;-78
2023/07/06 19:40:37;;;;;;;;;;;27.10;56.60;;;;;;6176942;28;2261;-78
2023/07/06 19:43:38;;;;;;;;;;;27.00;56.90;;;;;;6156136;28;2372;-78
2023/07/06 19:46:40;;;;;;;;;;;27.00;57.00;;;;;;6151705;28;1129;-77
2023/07/06 19:49:43;;;;;;;;;;;26.80;57.10;;;;;;6168894;28;1621;-78
2023/07/06 19:52:46;;;;;;;;;;;26.80;57.40;;;;;;6175306;28;1010;-73
2023/07/06 19:55:48;;;;;;;;;;;26.50;57.80;;;;;;6175573;28;1060;-77
2023/07/06 19:58:50;;;;;;;;;;;26.30;68.60;;;;;;6176755;28;1910;-75
2023/07/06 20:01:51;;;;;;;;;;;24.70;99.90;;;;;;6173736;28;2613;-72
2023/07/06 20:04:58;;;;;;;;;;;24.20;99.90;;;;;;6175668;28;1831;-73
2023/07/06 20:08:02;;;;;;;;;;;24.00;99.90;;;;;;6183365;28;1097;-73
2023/07/06 20:11:03;;;;;;;;;;;24.00;99.90;;;;;;6181306;28;2922;-72
2023/07/06 20:14:06;;;;;;;;;;;24.00;99.50;;;;;;6184473;28;1228;-72
2023/07/06 20:17:08;;;;;;;;;;;24.00;97.50;;;;;;6190513;28;2490;-72
2023/07/06 20:20:10;;;;;;;;;;;23.90;87.50;;;;;;6187509;28;1875;-73
2023/07/06 20:23:15;;;;;;;;;;;23.90;86.20;;;;;;6184477;28;1088;-73
2023/07/06 20:26:17;;;;;;;;;;;23.80;81.70;;;;;;6183698;28;1751;-72
2023/07/06 20:29:19;;;;;;;;;;;23.80;82.20;;;;;;6185011;28;2237;-75
2023/07/06 20:32:22;;;;;;;;;;;23.90;81.70;;;;;;6188048;28;1775;-75
2023/07/06 20:35:23;;;;;;;;;;;23.60;77.10;;;;;;6191298;28;1857;-75
2023/07/06 20:38:27;;;;;;;;;;;23.60;80.40;;;;;;6185769;28;1044;-78
2023/07/06 20:41:28;;;;;;;;;;;23.60;81.30;;;;;;6176583;28;1976;-75
2023/07/06 20:44:30;;;;;;;;;;;23.60;83.70;;;;;;6176802;28;1112;-76
2023/07/06 20:47:32;;;;;;;;;;;23.50;82.10;;;;;;6172952;28;1663;-76
2023/07/06 20:50:35;;;;;;;;;;;23.50;84.00;;;;;;6174395;28;1727;-75
2023/07/06 20:53:38;;;;;;;;;;;23.40;83.20;;;;;;6176605;28;1094;-77
2023/07/06 20:56:39;;;;;;;;;;;23.30;81.20;;;;;;6175773;28;1786;-76
2023/07/06 20:59:41;;;;;;;;;;;23.10;81.50;;;;;;6176286;28;1973;-77
2023/07/06 21:02:43;;;;;;;;;;;23.10;84.10;;;;;;6175632;28;1743;-77
2023/07/06 21:05:44;;;;;;;;;;;23.00;79.60;;;;;;6175659;28;1766;-76
2023/07/06 21:08:47;;;;;;;;;;;22.80;79.20;;;;;;6176470;28;1091;-76
2023/07/06 21:11:49;;;;;;;;;;;22.70;80.60;;;;;;6176489;28;1106;-76
2023/07/06 21:14:51;;;;;;;;;;;22.70;81.90;;;;;;6176352;28;1037;-78
2023/07/06 21:17:53;;;;;;;;;;;22.60;82.30;;;;;;6174542;28;1695;-77
2023/07/06 21:20:54;;;;;;;;;;;22.70;83.80;;;;;;6176298;28;1899;-78
2023/07/06 21:23:57;;;;;;;;;;;22.60;82.20;;;;;;6179127;28;1014;-76
2023/07/06 21:26:59;;;;;;;;;;;22.60;82.30;;;;;;6184443;28;1813;-78
2023/07/06 21:30:01;;;;;;;;;;;22.50;83.10;;;;;;6181367;28;1821;-77
